Time;durP1;ratioP1;P1;durP2;ratioP2;P2;SDS_P1;SDS_P2;PMS_P1;PMS_P2;Temp;Humidity;BMP_temperature;BMP_pressure;BME280_temperature;BME280_humidity;BME280_pressure;Samples;Min_cycle;Max_cycle;Signal;HPM_P1;HPM_P2
2022/12/16 00:02:06;;;;;;;70.87;36.17;;;-7.10;1.00;;;;;;5016079;28;20195;-64
2022/12/16 00:04:33;;;;;;;65.47;33.03;;;-7.20;1.00;;;;;;5034436;28;20239;-64
2022/12/16 00:07:00;;;;;;;70.03;33.80;;;-7.40;1.00;;;;;;5003315;28;20288;-63
2022/12/16 00:09:27;;;;;;;65.67;33.13;;;-7.50;1.00;;;;;;5038690;28;20379;-63
2022/12/16 00:11:54;;;;;;;66.77;31.67;;;-7.60;1.00;;;;;;5034495;28;20214;-62
2022/12/16 00:14:21;;;;;;;72.30;31.80;;;-7.60;1.00;;;;;;5014722;28;20216;-63
2022/12/16 00:16:48;;;;;;;61.33;31.57;;;-7.60;1.00;;;;;;5036671;28;20203;-64
2022/12/16 00:19:16;;;;;;;55.90;31.30;;;-7.60;1.00;;;;;;5016661;28;20694;-63
2022/12/16 00:21:43;;;;;;;68.67;32.90;;;-7.50;1.00;;;;;;5034618;28;20240;-63
2022/12/16 00:24:10;;;;;;;55.37;30.73;;;-7.50;1.00;;;;;;5035431;28;20771;-64
2022/12/16 00:26:37;;;;;;;61.17;30.03;;;-7.50;1.00;;;;;;5027709;28;20249;-61
2022/12/16 00:29:05;;;;;;;51.77;30.00;;;-7.50;1.00;;;;;;5034252;28;20686;-64
2022/12/16 00:31:32;;;;;;;52.03;29.07;;;-7.50;1.00;;;;;;5031395;28;20913;-63
2022/12/16 00:33:59;;;;;;;56.30;30.53;;;-7.40;1.00;;;;;;5032422;28;20267;-62
2022/12/16 00:36:26;;;;;;;46.80;27.20;;;-7.40;1.00;;;;;;5033164;28;20520;-64
2022/12/16 00:38:52;;;;;;;52.33;27.27;;;-7.30;1.00;;;;;;5002972;28;20195;-65
2022/12/16 00:41:20;;;;;;;50.80;28.60;;;-7.30;1.00;;;;;;5015257;28;20663;-65
2022/12/16 00:43:47;;;;;;;47.80;26.90;;;-7.30;1.00;;;;;;4992340;28;20790;-64
2022/12/16 00:46:14;;;;;;;47.83;25.63;;;-7.50;1.00;;;;;;4998128;28;20323;-64
2022/12/16 00:48:41;;;;;;;48.50;26.00;;;-7.50;1.00;;;;;;5036904;28;20200;-63
2022/12/16 00:51:08;;;;;;;46.47;24.77;;;-7.50;1.00;;;;;;4985343;28;20203;-63
2022/12/16 00:53:34;;;;;;;46.53;24.13;;;-7.50;1.00;;;;;;5032893;28;20189;-63
2022/12/16 00:56:08;;;;;;;38.73;23.13;;;-7.60;1.00;;;;;;5018129;28;20240;-63
2022/12/16 00:58:36;;;;;;;44.27;24.10;;;-7.50;1.00;;;;;;5034379;28;20267;-63
2022/12/16 01:01:03;;;;;;;42.93;22.73;;;-7.60;1.00;;;;;;4998342;28;20620;-62
2022/12/16 01:03:30;;;;;;;45.60;24.23;;;-7.50;1.00;;;;;;5032425;28;20239;-64
2022/12/16 01:05:58;;;;;;;44.73;24.10;;;-7.50;1.00;;;;;;4981968;28;20295;-64
2022/12/16 01:08:25;;;;;;;47.30;26.40;;;-7.50;1.00;;;;;;5008317;28;20601;-63
2022/12/16 01:10:54;;;;;;;58.50;28.97;;;-7.60;1.00;;;;;;5007922;28;20280;-64
2022/12/16 01:13:23;;;;;;;55.20;28.80;;;-7.60;1.00;;;;;;4999796;28;20722;-64
2022/12/16 01:15:50;;;;;;;49.87;27.20;;;-7.60;1.00;;;;;;5025939;28;20610;-64
2022/12/16 01:18:18;;;;;;;50.97;28.50;;;-7.60;1.00;;;;;;5033752;28;20192;-62
2022/12/16 01:20:44;;;;;;;49.77;27.20;;;-7.60;1.00;;;;;;5001624;28;20287;-65
2022/12/16 01:23:11;;;;;;;51.93;27.77;;;-7.50;1.00;;;;;;5035191;28;20271;-64
2022/12/16 01:25:38;;;;;;;58.83;29.60;;;-7.50;1.00;;;;;;5034804;28;20214;-64
2022/12/16 01:28:05;;;;;;;51.10;28.70;;;-7.50;1.00;;;;;;5003396;28;20607;-61
2022/12/16 01:30:32;;;;;;;57.20;28.60;;;-7.50;1.00;;;;;;5025088;28;20227;-65
2022/12/16 01:32:59;;;;;;;56.43;28.67;;;-7.50;1.00;;;;;;5014516;28;20192;-64
2022/12/16 01:35:26;;;;;;;48.37;27.07;;;-7.50;1.00;;;;;;5027070;28;20204;-65
2022/12/16 01:38:14;;;;;;;46.10;24.23;;;-7.60;1.00;;;;;;5000774;28;20600;-65
2022/12/16 01:40:41;;;;;;;41.93;24.73;;;-7.70;1.00;;;;;;5030046;28;20272;-63
2022/12/16 01:43:11;;;;;;;40.97;23.33;;;-7.70;1.00;;;;;;4999533;28;20202;-63
2022/12/16 01:45:39;;;;;;;44.10;23.77;;;-7.70;1.00;;;;;;5026344;28;20219;-65
2022/12/16 01:48:27;;;;;;;51.33;26.37;;;-7.70;1.00;;;;;;5012498;28;20192;-64
2022/12/16 01:51:02;;;;;;;56.80;29.47;;;-7.70;1.00;;;;;;5025960;28;20206;-65
2022/12/16 01:53:29;;;;;;;72.73;34.40;;;-7.70;1.00;;;;;;5030522;28;20678;-65
2022/12/16 01:55:58;;;;;;;40.67;24.60;;;-7.70;1.00;;;;;;5001723;28;20310;-63
2022/12/16 01:58:32;;;;;;;40.53;23.97;;;-7.70;1.00;;;;;;5014636;28;20524;-63
2022/12/16 02:01:01;;;;;;;41.20;23.70;;;-7.70;1.00;;;;;;5026320;28;20513;-64
2022/12/16 02:03:32;;;;;;;42.23;23.23;;;-7.80;1.00;;;;;;5028576;28;20232;-62
2022/12/16 02:06:01;;;;;;;38.07;20.73;;;-7.90;1.00;;;;;;5027795;28;20204;-62
2022/12/16 02:08:28;;;;;;;42.97;22.93;;;-7.90;1.00;;;;;;5026923;28;20231;-65
2022/12/16 02:11:20;;;;;;;38.70;22.70;;;-7.90;1.00;;;;;;5026051;28;20330;-65
2022/12/16 02:14:22;;;;;;;37.33;21.47;;;-7.90;1.00;;;;;;4996914;28;20264;-65
2022/12/16 02:16:55;;;;;;;44.63;23.60;;;-8.00;1.00;;;;;;4986251;28;20203;-64
2022/12/16 02:19:34;;;;;;;41.17;23.50;;;-8.00;1.00;;;;;;4981172;28;20874;-64
2022/12/16 02:22:24;;;;;;;44.73;23.03;;;-7.90;1.00;;;;;;5026769;28;20196;-65
2022/12/16 02:25:29;;;;;;;45.17;24.37;;;-7.90;1.00;;;;;;4962530;28;20199;-65
2022/12/16 02:28:11;;;;;;;45.27;26.07;;;-7.90;1.00;;;;;;5010929;28;20295;-65
2022/12/16 02:30:50;;;;;;;55.97;27.90;;;-7.90;1.00;;;;;;5029976;28;20736;-65
2022/12/16 02:33:24;;;;;;;55.17;27.97;;;-7.90;1.00;;;;;;5013740;28;20180;-66
2022/12/16 02:44:09;;;;;;;44.93;24.63;;;-7.90;1.00;;;;;;5031789;28;20183;-64
2022/12/16 02:46:42;;;;;;;76.07;32.77;;;-7.90;1.00;;;;;;5013550;28;20233;-63
2022/12/16 02:49:31;;;;;;;71.87;33.07;;;-8.00;1.00;;;;;;5009312;28;20721;-61
2022/12/16 02:52:00;;;;;;;53.70;26.43;;;-7.90;1.00;;;;;;5006676;28;20656;-63
2022/12/16 02:54:28;;;;;;;46.73;25.20;;;-8.00;1.00;;;;;;4998631;28;20273;-63
2022/12/16 02:57:25;;;;;;;46.97;24.00;;;-8.00;1.00;;;;;;5027096;28;20697;-63
2022/12/16 02:59:52;;;;;;;45.40;24.50;;;-8.00;1.00;;;;;;5032982;28;20280;-61
2022/12/16 03:02:41;;;;;;;40.13;22.73;;;-8.00;1.00;;;;;;5006469;28;20724;-64
2022/12/16 03:05:35;;;;;;;43.73;21.67;;;-8.00;1.00;;;;;;5003247;28;20334;-62
2022/12/16 03:08:06;;;;;;;38.00;21.10;;;-8.00;1.00;;;;;;5012249;28;20605;-63
2022/12/16 03:10:42;;;;;;;37.83;21.37;;;-8.00;1.00;;;;;;5026230;28;20200;-61
2022/12/16 03:13:10;;;;;;;39.20;21.57;;;-8.00;1.00;;;;;;5009646;28;20677;-64
2022/12/16 03:15:38;;;;;;;43.70;21.00;;;-8.00;1.00;;;;;;4995235;28;20216;-62
2022/12/16 03:18:09;;;;;;;38.60;21.30;;;-8.00;1.00;;;;;;5008890;28;20283;-63
2022/12/16 03:20:42;;;;;;;40.97;21.93;;;-8.00;1.00;;;;;;5008483;28;20658;-63
2022/12/16 03:23:18;;;;;;;38.30;21.77;;;-8.00;1.00;;;;;;5022528;28;20199;-63
2022/12/16 03:25:49;;;;;;;37.17;21.33;;;-8.00;1.00;;;;;;5026602;28;20201;-65
2022/12/16 03:28:52;;;;;;;38.73;21.33;;;-8.10;1.00;;;;;;5015743;28;20202;-65
2022/12/16 03:31:28;;;;;;;41.73;20.77;;;-8.10;1.00;;;;;;5034185;28;20203;-62
2022/12/16 03:34:04;;;;;;;35.37;19.67;;;-8.10;1.00;;;;;;5028513;28;20262;-63
2022/12/16 03:36:36;;;;;;;39.13;20.30;;;-8.10;1.00;;;;;;5029130;28;20210;-62
2022/12/16 03:39:05;;;;;;;37.83;20.83;;;-8.20;1.00;;;;;;5005987;28;20310;-63
2022/12/16 03:41:33;;;;;;;37.80;20.50;;;-8.10;1.00;;;;;;5022134;28;20273;-63
2022/12/16 03:44:00;;;;;;;37.57;19.43;;;-8.20;1.00;;;;;;5025200;28;20183;-59
2022/12/16 03:46:27;;;;;;;37.03;20.80;;;-8.20;1.00;;;;;;5011276;28;20768;-57
2022/12/16 03:48:54;;;;;;;36.67;20.10;;;-8.20;1.00;;;;;;5005451;28;20719;-58
2022/12/16 03:51:21;;;;;;;37.73;22.23;;;-8.10;1.00;;;;;;5027710;28;20671;-56
2022/12/16 03:53:48;;;;;;;32.77;21.17;;;-8.20;1.00;;;;;;5027315;28;20561;-57
2022/12/16 03:56:15;;;;;;;32.27;19.87;;;-8.20;1.00;;;;;;5029654;28;20200;-58
2022/12/16 03:58:43;;;;;;;41.43;20.03;;;-8.20;1.00;;;;;;5026188;28;20922;-58
2022/12/16 04:01:10;;;;;;;42.80;20.23;;;-8.20;1.00;;;;;;5008076;28;20565;-59
2022/12/16 04:03:37;;;;;;;38.40;21.10;;;-8.30;1.00;;;;;;5020759;28;20732;-57
2022/12/16 04:06:04;;;;;;;33.53;19.70;;;-8.30;1.00;;;;;;4986145;28;20272;-57
2022/12/16 04:08:31;;;;;;;39.73;21.17;;;-8.30;1.00;;;;;;4990396;28;20243;-59
2022/12/16 04:25:16;;;;;;;31.33;17.77;;;-8.30;1.00;;;;;;5010517;28;20197;-60
2022/12/16 04:27:45;;;;;;;41.00;19.30;;;-8.30;1.00;;;;;;5008367;28;20192;-60
2022/12/16 04:30:20;;;;;;;33.80;19.60;;;-8.30;1.00;;;;;;5016862;28;20196;-63
